Analomink, PA

11:53 AM EST on March 06, 2015 (GMT -0500)
Penn Estates | Change Station
CLOSE
Current Station
Personal Weather Station
Location: East Stroudsburg, PA
Elevation: 920 ft
Nearby Weather Stations

Elev 920 ft 41.02 °N, 75.25 °W | Updated 50 seconds ago

Clear
Clear
22.8 °F
Feels Like 23 °F
N
3.0
Wind Variable Wind from ENE
Gusts 4.0 mph

Today
High -- | Low -- °F
--% Chance of Precip.
Yesterday
High -- | Low -- °F
Precip. -- in
6:27 AM 5:57 PM
Full, 99% visible
Pressure 30.49 in
Visibility 10.0 miles
Clouds Clear
Windchill 23 °F
Dew Point 2 °F
Humidity 40%
Rainfall in
Snow Depth Not available.
UV 5 out of 12
Pollen .90 out of 12
Air Quality Not available.
Flu Activity Not available.
METAR KMPO 061553Z AUTO 00000KT 10SM CLR M11/M19 A3036 RMK AO2 SLP325 T11061189

More Conditions Fewer Conditions

Pressure 30.49 in
Visibility 10.0 miles
Clouds Clear
Windchill 23 °F
Dew Point 2 °F
Humidity 40%
Rainfall in
Snow Depth Not available.
UV 5 out of 12
Pollen .90 out of 12
Air Quality Not available.
Flu Activity Not available.
METAR KMPO 061553Z AUTO 00000KT 10SM CLR M11/M19 A3036 RMK AO2 SLP325 T11061189

More Conditions Fewer Conditions

10-Day Weather Forecast

Almanac

Astronomy

Mar. 06, 2015 Rise Set
Actual Time
Civil Twilight
Nautical Twilight
Astronomical Twilight
Moon
Length of Visible Light
Length of Day
Tomorrow will be .
, % of the Moon is Illuminated

Today's Extremes

State Highs State Lows

Community

WunderPhotos

Upload Photos

1,803,336 photos uploaded!

WunderBlogs® & News

Nearby

Air Quality

  Air Quality AQ Index Pollutant
Not available.

Snow Depth

Station Depth Elevation

Earthquake Activity

City Distance Mag. Time & Date
Minimum magnitude displayed is 2.5.

Coastal Water Temperatures

Place Temperature

Nearby Weather Stations